sensor_id;sensor_type;location;lat;lon;timestamp;pressure;altitude;pressure_sealevel;temperature;humidity
69855;BME280;57146;48.140;16.304;2023-12-20T00:02:20;99263.53;;;-1.92;98.05
69855;BME280;57146;48.140;16.304;2023-12-20T00:04:47;99254.78;;;-1.91;98.16
69855;BME280;57146;48.140;16.304;2023-12-20T00:07:15;99267.31;;;-1.95;98.44
69855;BME280;57146;48.140;16.304;2023-12-20T00:09:43;99258.44;;;-1.99;98.16
69855;BME280;57146;48.140;16.304;2023-12-20T00:12:10;99258.66;;;-2.00;97.83
69855;BME280;57146;48.140;16.304;2023-12-20T00:14:37;99256.31;;;-2.02;98.31
69855;BME280;57146;48.140;16.304;2023-12-20T00:17:04;99258.44;;;-1.99;98.33
69855;BME280;57146;48.140;16.304;2023-12-20T00:19:31;99253.50;;;-2.00;98.15
69855;BME280;57146;48.140;16.304;2023-12-20T00:21:58;99258.22;;;-1.97;98.28
69855;BME280;57146;48.140;16.304;2023-12-20T00:24:26;99260.31;;;-2.06;97.91
69855;BME280;57146;48.140;16.304;2023-12-20T00:26:53;99249.06;;;-2.11;98.42
69855;BME280;57146;48.140;16.304;2023-12-20T00:29:20;99248.13;;;-2.17;98.95
69855;BME280;57146;48.140;16.304;2023-12-20T00:31:47;99246.72;;;-2.13;98.79
69855;BME280;57146;48.140;16.304;2023-12-20T00:34:15;99257.66;;;-2.18;99.13
69855;BME280;57146;48.140;16.304;2023-12-20T00:36:42;99243.44;;;-2.20;98.52
69855;BME280;57146;48.140;16.304;2023-12-20T00:39:09;99237.75;;;-2.29;98.91
69855;BME280;57146;48.140;16.304;2023-12-20T00:41:36;99241.56;;;-2.31;98.86
69855;BME280;57146;48.140;16.304;2023-12-20T00:44:03;99247.94;;;-2.34;99.09
69855;BME280;57146;48.140;16.304;2023-12-20T00:46:30;99249.75;;;-2.34;98.92
69855;BME280;57146;48.140;16.304;2023-12-20T00:48:57;99243.34;;;-2.32;98.59
69855;BME280;57146;48.140;16.304;2023-12-20T00:51:24;99254.25;;;-2.30;98.96
69855;BME280;57146;48.140;16.304;2023-12-20T00:53:51;99261.97;;;-2.30;98.46
69855;BME280;57146;48.140;16.304;2023-12-20T00:56:20;99254.91;;;-2.34;98.51
69855;BME280;57146;48.140;16.304;2023-12-20T00:58:47;99259.59;;;-2.31;98.60
69855;BME280;57146;48.140;16.304;2023-12-20T01:01:15;99269.34;;;-2.33;98.80
69855;BME280;57146;48.140;16.304;2023-12-20T01:03:42;99277.28;;;-2.35;98.49
69855;BME280;57146;48.140;16.304;2023-12-20T01:06:09;99275.00;;;-2.43;98.77
69855;BME280;57146;48.140;16.304;2023-12-20T01:08:37;99260.91;;;-2.41;98.04
69855;BME280;57146;48.140;16.304;2023-12-20T01:11:04;99275.28;;;-2.51;98.19
69855;BME280;57146;48.140;16.304;2023-12-20T01:13:31;99263.97;;;-2.50;99.09
69855;BME280;57146;48.140;16.304;2023-12-20T01:15:59;99268.41;;;-2.57;98.36
69855;BME280;57146;48.140;16.304;2023-12-20T01:18:27;99251.50;;;-2.53;98.77
69855;BME280;57146;48.140;16.304;2023-12-20T01:20:54;99260.63;;;-2.51;99.40
69855;BME280;57146;48.140;16.304;2023-12-20T01:23:21;99259.59;;;-2.50;100.00
69855;BME280;57146;48.140;16.304;2023-12-20T01:25:48;99250.66;;;-2.47;100.00
69855;BME280;57146;48.140;16.304;2023-12-20T01:28:15;99256.19;;;-2.44;100.00
69855;BME280;57146;48.140;16.304;2023-12-20T01:30:42;99254.19;;;-2.42;100.00
69855;BME280;57146;48.140;16.304;2023-12-20T01:33:10;99248.22;;;-2.42;100.00
69855;BME280;57146;48.140;16.304;2023-12-20T01:35:37;99254.63;;;-2.45;100.00
69855;BME280;57146;48.140;16.304;2023-12-20T01:38:04;99239.16;;;-2.45;100.00
69855;BME280;57146;48.140;16.304;2023-12-20T01:40:31;99241.28;;;-2.42;100.00
69855;BME280;57146;48.140;16.304;2023-12-20T01:45:26;99220.00;;;-2.37;100.00
69855;BME280;57146;48.140;16.304;2023-12-20T01:47:57;99205.34;;;-2.36;100.00
69855;BME280;57146;48.140;16.304;2023-12-20T01:50:26;99201.63;;;-2.41;100.00
69855;BME280;57146;48.140;16.304;2023-12-20T01:52:56;99194.53;;;-2.45;100.00
69855;BME280;57146;48.140;16.304;2023-12-20T01:55:25;99206.63;;;-2.46;100.00
69855;BME280;57146;48.140;16.304;2023-12-20T01:57:54;99202.28;;;-2.45;100.00
69855;BME280;57146;48.140;16.304;2023-12-20T02:00:21;99209.19;;;-2.46;100.00
69855;BME280;57146;48.140;16.304;2023-12-20T02:02:50;99205.41;;;-2.43;100.00
69855;BME280;57146;48.140;16.304;2023-12-20T02:05:20;99204.63;;;-2.44;100.00
69855;BME280;57146;48.140;16.304;2023-12-20T02:07:48;99198.97;;;-2.52;99.81
69855;BME280;57146;48.140;16.304;2023-12-20T02:10:16;99202.00;;;-2.55;99.12
69855;BME280;57146;48.140;16.304;2023-12-20T02:12:43;99194.81;;;-2.53;99.47
69855;BME280;57146;48.140;16.304;2023-12-20T02:15:10;99190.53;;;-2.59;98.84
69855;BME280;57146;48.140;16.304;2023-12-20T02:17:38;99180.91;;;-2.71;98.39
69855;BME280;57146;48.140;16.304;2023-12-20T02:20:07;99168.91;;;-2.77;98.75
69855;BME280;57146;48.140;16.304;2023-12-20T02:22:34;99174.84;;;-2.76;98.43
69855;BME280;57146;48.140;16.304;2023-12-20T02:25:02;99161.69;;;-2.86;98.65
69855;BME280;57146;48.140;16.304;2023-12-20T02:27:29;99150.00;;;-2.89;98.54
69855;BME280;57146;48.140;16.304;2023-12-20T02:29:56;99149.16;;;-2.83;99.27
69855;BME280;57146;48.140;16.304;2023-12-20T02:32:24;99140.28;;;-2.87;98.73
69855;BME280;57146;48.140;16.304;2023-12-20T02:34:52;99138.50;;;-2.86;98.40
69855;BME280;57146;48.140;16.304;2023-12-20T02:37:19;99141.31;;;-2.88;98.84
69855;BME280;57146;48.140;16.304;2023-12-20T02:39:46;99131.97;;;-2.89;99.84
69855;BME280;57146;48.140;16.304;2023-12-20T02:42:13;99122.09;;;-2.92;99.53
69855;BME280;57146;48.140;16.304;2023-12-20T02:44:41;99124.31;;;-2.96;99.37
69855;BME280;57146;48.140;16.304;2023-12-20T02:47:08;99127.13;;;-2.97;98.79
69855;BME280;57146;48.140;16.304;2023-12-20T02:49:35;99133.91;;;-3.03;99.10
69855;BME280;57146;48.140;16.304;2023-12-20T02:52:03;99118.75;;;-3.11;99.28
69855;BME280;57146;48.140;16.304;2023-12-20T02:54:30;99119.75;;;-3.12;99.10
69855;BME280;57146;48.140;16.304;2023-12-20T02:56:57;99130.41;;;-3.08;98.04
69855;BME280;57146;48.140;16.304;2023-12-20T02:59:24;99127.31;;;-3.17;98.11
69855;BME280;57146;48.140;16.304;2023-12-20T03:01:52;99137.25;;;-3.21;98.41
69855;BME280;57146;48.140;16.304;2023-12-20T03:04:19;99131.31;;;-3.21;98.38
69855;BME280;57146;48.140;16.304;2023-12-20T03:06:46;99127.53;;;-3.19;98.63
69855;BME280;57146;48.140;16.304;2023-12-20T03:09:13;99120.81;;;-3.20;98.71
69855;BME280;57146;48.140;16.304;2023-12-20T03:11:40;99120.66;;;-3.25;97.59
69855;BME280;57146;48.140;16.304;2023-12-20T03:14:07;99126.16;;;-3.40;97.65
69855;BME280;57146;48.140;16.304;2023-12-20T03:16:34;99127.34;;;-3.42;97.50
69855;BME280;57146;48.140;16.304;2023-12-20T03:19:02;99127.41;;;-3.49;98.82
69855;BME280;57146;48.140;16.304;2023-12-20T03:21:29;99108.19;;;-3.46;99.05
69855;BME280;57146;48.140;16.304;2023-12-20T03:23:57;99088.88;;;-3.55;98.30
69855;BME280;57146;48.140;16.304;2023-12-20T03:26:24;99096.81;;;-3.57;99.57
69855;BME280;57146;48.140;16.304;2023-12-20T03:28:50;99106.91;;;-3.55;99.35
69855;BME280;57146;48.140;16.304;2023-12-20T03:31:18;99103.31;;;-3.54;100.00
69855;BME280;57146;48.140;16.304;2023-12-20T03:33:45;99092.75;;;-3.46;100.00
69855;BME280;57146;48.140;16.304;2023-12-20T03:36:12;99102.69;;;-3.50;100.00
69855;BME280;57146;48.140;16.304;2023-12-20T03:38:40;99115.78;;;-3.51;100.00
69855;BME280;57146;48.140;16.304;2023-12-20T03:41:07;99117.75;;;-3.53;100.00
69855;BME280;57146;48.140;16.304;2023-12-20T03:43:34;99110.88;;;-3.59;99.58
69855;BME280;57146;48.140;16.304;2023-12-20T03:46:03;99098.66;;;-3.64;99.88
69855;BME280;57146;48.140;16.304;2023-12-20T03:48:31;99094.69;;;-3.67;99.88
69855;BME280;57146;48.140;16.304;2023-12-20T03:50:58;99106.84;;;-3.74;99.83
69855;BME280;57146;48.140;16.304;2023-12-20T03:53:25;99098.81;;;-3.84;99.79
69855;BME280;57146;48.140;16.304;2023-12-20T03:55:52;99099.66;;;-3.90;100.00
69855;BME280;57146;48.140;16.304;2023-12-20T03:58:19;99094.66;;;-3.85;100.00
69855;BME280;57146;48.140;16.304;2023-12-20T04:00:46;99094.09;;;-3.87;100.00
69855;BME280;57146;48.140;16.304;2023-12-20T04:03:13;99093.09;;;-3.86;100.00
69855;BME280;57146;48.140;16.304;2023-12-20T04:05:41;99098.22;;;-3.86;100.00
69855;BME280;57146;48.140;16.304;2023-12-20T04:08:09;99097.66;;;-3.88;100.00
69855;BME280;57146;48.140;16.304;2023-12-20T04:10:36;99098.50;;;-3.94;100.00
69855;BME280;57146;48.140;16.304;2023-12-20T04:13:04;99095.06;;;-3.88;100.00
69855;BME280;57146;48.140;16.304;2023-12-20T04:15:31;99105.53;;;-3.83;100.00
69855;BME280;57146;48.140;16.304;2023-12-20T04:17:58;99110.03;;;-3.78;100.00
69855;BME280;57146;48.140;16.304;2023-12-20T04:20:25;99108.47;;;-3.79;100.00
69855;BME280;57146;48.140;16.304;2023-12-20T04:22:52;99106.91;;;-3.80;100.00
69855;BME280;57146;48.140;16.304;2023-12-20T04:25:19;99103.53;;;-3.81;100.00
69855;BME280;57146;48.140;16.304;2023-12-20T04:27:46;99092.25;;;-3.80;100.00
69855;BME280;57146;48.140;16.304;2023-12-20T04:30:14;99088.25;;;-3.76;100.00
69855;BME280;57146;48.140;16.304;2023-12-20T04:32:42;99098.56;;;-3.76;100.00
69855;BME280;57146;48.140;16.304;2023-12-20T04:35:09;99095.63;;;-3.79;100.00
69855;BME280;57146;48.140;16.304;2023-12-20T04:37:36;99087.69;;;-3.78;100.00
69855;BME280;57146;48.140;16.304;2023-12-20T04:40:03;99094.19;;;-3.75;100.00
69855;BME280;57146;48.140;16.304;2023-12-20T04:42:31;99099.72;;;-3.72;100.00
69855;BME280;57146;48.140;16.304;2023-12-20T04:44:58;99090.06;;;-3.76;100.00
69855;BME280;57146;48.140;16.304;2023-12-20T04:47:25;99103.28;;;-3.73;100.00
69855;BME280;57146;48.140;16.304;2023-12-20T04:49:52;99103.06;;;-3.71;100.00
69855;BME280;57146;48.140;16.304;2023-12-20T04:52:19;99093.13;;;-3.68;100.00
69855;BME280;57146;48.140;16.304;2023-12-20T04:54:46;99100.84;;;-3.68;100.00
69855;BME280;57146;48.140;16.304;2023-12-20T04:57:13;99099.84;;;-3.67;100.00
69855;BME280;57146;48.140;16.304;2023-12-20T04:59:41;99096.06;;;-3.64;100.00
69855;BME280;57146;48.140;16.304;2023-12-20T05:02:08;99096.44;;;-3.61;100.00
69855;BME280;57146;48.140;16.304;2023-12-20T05:04:35;99108.09;;;-3.58;100.00
69855;BME280;57146;48.140;16.304;2023-12-20T05:07:03;99093.31;;;-3.63;100.00
69855;BME280;57146;48.140;16.304;2023-12-20T05:09:30;99099.00;;;-3.61;100.00
69855;BME280;57146;48.140;16.304;2023-12-20T05:11:57;99099.59;;;-3.58;100.00
69855;BME280;57146;48.140;16.304;2023-12-20T05:14:25;99095.97;;;-3.51;100.00
69855;BME280;57146;48.140;16.304;2023-12-20T05:16:52;99090.97;;;-3.46;100.00
69855;BME280;57146;48.140;16.304;2023-12-20T05:19:19;99081.03;;;-3.42;100.00
69855;BME280;57146;48.140;16.304;2023-12-20T05:21:46;99071.44;;;-3.35;100.00
69855;BME280;57146;48.140;16.304;2023-12-20T05:24:14;99080.69;;;-3.27;100.00
69855;BME280;57146;48.140;16.304;2023-12-20T05:26:41;99083.78;;;-3.19;100.00
69855;BME280;57146;48.140;16.304;2023-12-20T05:29:08;99082.34;;;-3.15;100.00
69855;BME280;57146;48.140;16.304;2023-12-20T05:31:35;99088.06;;;-3.13;100.00
69855;BME280;57146;48.140;16.304;2023-12-20T05:34:02;99093.94;;;-3.05;100.00
69855;BME280;57146;48.140;16.304;2023-12-20T05:36:29;99086.56;;;-3.02;100.00
69855;BME280;57146;48.140;16.304;2023-12-20T05:38:56;99088.72;;;-2.99;100.00
69855;BME280;57146;48.140;16.304;2023-12-20T05:41:23;99083.69;;;-2.94;100.00
69855;BME280;57146;48.140;16.304;2023-12-20T05:43:50;99087.84;;;-2.93;100.00
69855;BME280;57146;48.140;16.304;2023-12-20T05:46:17;99077.69;;;-2.87;100.00
69855;BME280;57146;48.140;16.304;2023-12-20T05:48:45;99075.47;;;-2.84;100.00
69855;BME280;57146;48.140;16.304;2023-12-20T05:51:12;99086.47;;;-2.77;100.00
69855;BME280;57146;48.140;16.304;2023-12-20T05:53:39;99075.50;;;-2.72;100.00
69855;BME280;57146;48.140;16.304;2023-12-20T05:56:06;99083.38;;;-2.67;100.00
69855;BME280;57146;48.140;16.304;2023-12-20T05:58:33;99088.78;;;-2.57;100.00
69855;BME280;57146;48.140;16.304;2023-12-20T06:01:00;99091.28;;;-2.50;100.00
69855;BME280;57146;48.140;16.304;2023-12-20T06:03:27;99093.69;;;-2.37;100.00
69855;BME280;57146;48.140;16.304;2023-12-20T06:05:54;99089.09;;;-2.35;100.00
69855;BME280;57146;48.140;16.304;2023-12-20T06:08:39;99099.97;;;-2.33;100.00
69855;BME280;57146;48.140;16.304;2023-12-20T06:11:06;99102.31;;;-2.31;100.00
69855;BME280;57146;48.140;16.304;2023-12-20T06:13:33;99103.69;;;-2.29;100.00
69855;BME280;57146;48.140;16.304;2023-12-20T06:16:00;99104.47;;;-2.28;100.00
69855;BME280;57146;48.140;16.304;2023-12-20T06:18:27;99096.56;;;-2.15;100.00
69855;BME280;57146;48.140;16.304;2023-12-20T06:20:54;99098.16;;;-2.02;100.00
69855;BME280;57146;48.140;16.304;2023-12-20T06:23:21;99094.38;;;-1.88;100.00
69855;BME280;57146;48.140;16.304;2023-12-20T06:25:48;99101.69;;;-1.61;100.00
69855;BME280;57146;48.140;16.304;2023-12-20T06:28:15;99086.63;;;-1.64;100.00
69855;BME280;57146;48.140;16.304;2023-12-20T06:30:43;99102.59;;;-1.44;100.00
69855;BME280;57146;48.140;16.304;2023-12-20T06:33:10;99103.50;;;-0.86;100.00
69855;BME280;57146;48.140;16.304;2023-12-20T06:35:37;99111.88;;;-0.27;100.00
69855;BME280;57146;48.140;16.304;2023-12-20T06:38:04;99108.63;;;0.11;100.00
69855;BME280;57146;48.140;16.304;2023-12-20T06:40:31;99116.97;;;0.69;100.00
69855;BME280;57146;48.140;16.304;2023-12-20T06:42:58;99140.19;;;0.81;100.00
69855;BME280;57146;48.140;16.304;2023-12-20T06:45:38;99125.88;;;1.17;100.00
69855;BME280;57146;48.140;16.304;2023-12-20T06:48:05;99122.78;;;1.42;100.00
69855;BME280;57146;48.140;16.304;2023-12-20T06:50:32;99124.28;;;1.87;100.00
69855;BME280;57146;48.140;16.304;2023-12-20T06:52:59;99117.94;;;2.37;98.87
69855;BME280;57146;48.140;16.304;2023-12-20T06:55:26;99109.13;;;2.38;98.62
69855;BME280;57146;48.140;16.304;2023-12-20T06:57:54;99086.38;;;3.08;93.88
69855;BME280;57146;48.140;16.304;2023-12-20T07:00:21;99090.75;;;3.02;92.13
69855;BME280;57146;48.140;16.304;2023-12-20T07:02:48;99082.53;;;3.21;90.11
69855;BME280;57146;48.140;16.304;2023-12-20T07:05:18;99088.53;;;3.31;89.07
69855;BME280;57146;48.140;16.304;2023-12-20T07:07:46;99077.66;;;3.55;86.98
69855;BME280;57146;48.140;16.304;2023-12-20T07:10:13;99085.22;;;3.62;86.40
69855;BME280;57146;48.140;16.304;2023-12-20T07:12:41;99074.81;;;3.72;85.09
69855;BME280;57146;48.140;16.304;2023-12-20T07:15:08;99071.19;;;3.88;84.30
69855;BME280;57146;48.140;16.304;2023-12-20T07:17:35;99076.41;;;3.78;84.84
69855;BME280;57146;48.140;16.304;2023-12-20T07:20:02;99085.78;;;3.74;85.31
69855;BME280;57146;48.140;16.304;2023-12-20T07:22:30;99081.34;;;3.79;84.36
69855;BME280;57146;48.140;16.304;2023-12-20T07:24:59;99089.16;;;4.00;82.45
69855;BME280;57146;48.140;16.304;2023-12-20T07:27:27;99105.84;;;4.04;82.51
69855;BME280;57146;48.140;16.304;2023-12-20T07:29:54;99111.03;;;4.09;81.74
69855;BME280;57146;48.140;16.304;2023-12-20T07:32:21;99125.88;;;4.19;81.05
69855;BME280;57146;48.140;16.304;2023-12-20T07:34:48;99117.28;;;4.49;79.39
69855;BME280;57146;48.140;16.304;2023-12-20T07:37:16;99127.97;;;4.63;78.29
69855;BME280;57146;48.140;16.304;2023-12-20T07:39:43;99146.69;;;4.80;77.38
69855;BME280;57146;48.140;16.304;2023-12-20T07:42:10;99140.97;;;4.57;78.90
69855;BME280;57146;48.140;16.304;2023-12-20T07:44:37;99136.03;;;4.51;79.71
69855;BME280;57146;48.140;16.304;2023-12-20T07:47:04;99134.22;;;4.56;79.48
69855;BME280;57146;48.140;16.304;2023-12-20T07:49:31;99128.47;;;4.65;79.27
69855;BME280;57146;48.140;16.304;2023-12-20T07:51:59;99117.78;;;4.61;79.51
69855;BME280;57146;48.140;16.304;2023-12-20T07:54:26;99122.97;;;4.71;78.29
69855;BME280;57146;48.140;16.304;2023-12-20T07:56:53;99126.38;;;4.62;79.83
69855;BME280;57146;48.140;16.304;2023-12-20T07:59:20;99116.44;;;4.84;78.26
69855;BME280;57146;48.140;16.304;2023-12-20T08:01:58;99120.88;;;4.78;78.55
69855;BME280;57146;48.140;16.304;2023-12-20T08:04:26;99128.69;;;4.89;77.66
69855;BME280;57146;48.140;16.304;2023-12-20T08:06:53;99122.41;;;4.90;77.81
69855;BME280;57146;48.140;16.304;2023-12-20T08:09:20;99129.19;;;4.91;77.87
69855;BME280;57146;48.140;16.304;2023-12-20T08:11:48;99141.91;;;5.08;76.35
69855;BME280;57146;48.140;16.304;2023-12-20T08:14:15;99111.59;;;5.22;75.82
69855;BME280;57146;48.140;16.304;2023-12-20T08:16:43;99110.56;;;5.23;75.81
69855;BME280;57146;48.140;16.304;2023-12-20T08:19:10;99134.84;;;5.18;76.43
69855;BME280;57146;48.140;16.304;2023-12-20T08:21:37;99097.53;;;5.18;76.62
69855;BME280;57146;48.140;16.304;2023-12-20T08:24:05;99107.41;;;5.26;76.16
69855;BME280;57146;48.140;16.304;2023-12-20T08:26:33;99128.31;;;5.21;76.49
69855;BME280;57146;48.140;16.304;2023-12-20T08:29:00;99126.94;;;5.39;74.80
69855;BME280;57146;48.140;16.304;2023-12-20T08:31:28;99121.72;;;5.39;75.07
69855;BME280;57146;48.140;16.304;2023-12-20T08:33:56;99112.78;;;5.50;74.53
69855;BME280;57146;48.140;16.304;2023-12-20T08:36:23;99113.09;;;5.33;75.68
69855;BME280;57146;48.140;16.304;2023-12-20T08:38:50;99135.56;;;5.34;75.13
69855;BME280;57146;48.140;16.304;2023-12-20T08:41:18;99132.72;;;5.25;76.09
69855;BME280;57146;48.140;16.304;2023-12-20T08:43:45;99141.81;;;5.38;75.92
69855;BME280;57146;48.140;16.304;2023-12-20T08:46:14;99147.53;;;5.40;75.14
69855;BME280;57146;48.140;16.304;2023-12-20T08:48:41;99140.78;;;5.29;76.49
69855;BME280;57146;48.140;16.304;2023-12-20T08:51:10;99142.06;;;5.37;75.41
69855;BME280;57146;48.140;16.304;2023-12-20T08:53:37;99159.81;;;5.40;75.29
69855;BME280;57146;48.140;16.304;2023-12-20T08:56:04;99152.00;;;5.29;76.20
69855;BME280;57146;48.140;16.304;2023-12-20T08:58:31;99169.50;;;5.29;76.24
69855;BME280;57146;48.140;16.304;2023-12-20T09:00:58;99168.72;;;5.28;76.06
69855;BME280;57146;48.140;16.304;2023-12-20T09:03:25;99161.09;;;5.42;75.11
69855;BME280;57146;48.140;16.304;2023-12-20T09:05:52;99161.13;;;5.37;75.83
69855;BME280;57146;48.140;16.304;2023-12-20T09:08:19;99172.59;;;5.41;75.73
69855;BME280;57146;48.140;16.304;2023-12-20T09:10:46;99175.19;;;5.46;75.68
69855;BME280;57146;48.140;16.304;2023-12-20T09:13:14;99167.34;;;5.46;76.05
69855;BME280;57146;48.140;16.304;2023-12-20T09:15:41;99172.31;;;5.43;76.65
69855;BME280;57146;48.140;16.304;2023-12-20T09:18:08;99171.28;;;5.44;77.16
69855;BME280;57146;48.140;16.304;2023-12-20T09:20:36;99175.22;;;5.41;77.71
69855;BME280;57146;48.140;16.304;2023-12-20T09:23:05;99177.53;;;5.43;78.05
69855;BME280;57146;48.140;16.304;2023-12-20T09:25:32;99172.31;;;5.43;77.92
69855;BME280;57146;48.140;16.304;2023-12-20T09:28:00;99157.94;;;5.50;77.71
69855;BME280;57146;48.140;16.304;2023-12-20T09:30:27;99179.63;;;5.46;78.16
69855;BME280;57146;48.140;16.304;2023-12-20T09:32:55;99182.53;;;5.44;78.70
69855;BME280;57146;48.140;16.304;2023-12-20T09:35:22;99183.28;;;5.45;78.79
69855;BME280;57146;48.140;16.304;2023-12-20T09:37:50;99187.75;;;5.39;79.24
69855;BME280;57146;48.140;16.304;2023-12-20T09:40:20;99178.06;;;5.40;79.16
69855;BME280;57146;48.140;16.304;2023-12-20T09:43:04;99174.97;;;5.38;79.26
69855;BME280;57146;48.140;16.304;2023-12-20T09:45:35;99187.50;;;5.36;79.80
69855;BME280;57146;48.140;16.304;2023-12-20T09:48:03;99194.28;;;5.37;79.62
69855;BME280;57146;48.140;16.304;2023-12-20T09:50:30;99188.81;;;5.33;80.18
69855;BME280;57146;48.140;16.304;2023-12-20T09:52:58;99182.03;;;5.37;82.11
69855;BME280;57146;48.140;16.304;2023-12-20T09:55:27;99200.56;;;5.25;82.79
69855;BME280;57146;48.140;16.304;2023-12-20T09:57:57;99200.59;;;5.20;83.29
69855;BME280;57146;48.140;16.304;2023-12-20T10:00:24;99185.69;;;5.26;85.00
69855;BME280;57146;48.140;16.304;2023-12-20T10:02:59;99205.84;;;5.10;85.13
69855;BME280;57146;48.140;16.304;2023-12-20T10:05:33;99195.16;;;5.01;85.82
69855;BME280;57146;48.140;16.304;2023-12-20T10:08:01;99174.06;;;4.88;87.48
69855;BME280;57146;48.140;16.304;2023-12-20T10:10:29;99170.69;;;4.77;88.75
69855;BME280;57146;48.140;16.304;2023-12-20T10:13:12;99187.13;;;4.72;88.96
69855;BME280;57146;48.140;16.304;2023-12-20T10:15:40;99160.53;;;4.65;89.53
69855;BME280;57146;48.140;16.304;2023-12-20T10:18:07;99163.66;;;4.62;89.86
69855;BME280;57146;48.140;16.304;2023-12-20T10:20:34;99145.16;;;4.64;88.92
69855;BME280;57146;48.140;16.304;2023-12-20T10:23:01;99155.59;;;4.64;89.53
69855;BME280;57146;48.140;16.304;2023-12-20T10:25:29;99134.19;;;4.62;89.93
69855;BME280;57146;48.140;16.304;2023-12-20T10:28:32;99139.69;;;4.60;89.97
69855;BME280;57146;48.140;16.304;2023-12-20T10:31:00;99130.56;;;4.63;89.59
69855;BME280;57146;48.140;16.304;2023-12-20T10:33:28;99122.44;;;4.69;87.43
69855;BME280;57146;48.140;16.304;2023-12-20T10:35:56;99117.22;;;4.79;86.37
69855;BME280;57146;48.140;16.304;2023-12-20T10:38:23;99131.84;;;4.80;86.58
69855;BME280;57146;48.140;16.304;2023-12-20T10:40:54;99123.47;;;4.84;86.00
69855;BME280;57146;48.140;16.304;2023-12-20T10:43:24;99126.34;;;4.82;86.35
69855;BME280;57146;48.140;16.304;2023-12-20T10:45:51;99115.91;;;4.82;86.47
69855;BME280;57146;48.140;16.304;2023-12-20T10:48:19;99121.38;;;4.86;85.72
69855;BME280;57146;48.140;16.304;2023-12-20T10:50:47;99126.03;;;4.94;84.73
69855;BME280;57146;48.140;16.304;2023-12-20T10:53:15;99110.38;;;4.94;85.22
69855;BME280;57146;48.140;16.304;2023-12-20T10:55:43;99108.56;;;4.94;85.71
69855;BME280;57146;48.140;16.304;2023-12-20T10:58:11;99100.22;;;4.92;85.95
69855;BME280;57146;48.140;16.304;2023-12-20T11:00:41;99115.09;;;4.92;85.59
69855;BME280;57146;48.140;16.304;2023-12-20T11:03:11;99097.88;;;4.96;85.33
69855;BME280;57146;48.140;16.304;2023-12-20T11:05:44;99090.81;;;4.96;85.16
69855;BME280;57146;48.140;16.304;2023-12-20T11:14:06;99088.19;;;5.07;84.81
69855;BME280;57146;48.140;16.304;2023-12-20T11:16:38;99070.38;;;5.19;84.02
69855;BME280;57146;48.140;16.304;2023-12-20T11:19:17;99064.38;;;5.18;83.80
69855;BME280;57146;48.140;16.304;2023-12-20T11:21:46;99077.94;;;5.20;83.76
69855;BME280;57146;48.140;16.304;2023-12-20T11:24:15;99066.19;;;5.23;83.56
69855;BME280;57146;48.140;16.304;2023-12-20T11:26:47;99062.50;;;5.29;83.16
69855;BME280;57146;48.140;16.304;2023-12-20T11:29:34;99077.63;;;5.32;82.70
69855;BME280;57146;48.140;16.304;2023-12-20T11:34:53;99065.34;;;5.38;82.55
69855;BME280;57146;48.140;16.304;2023-12-20T11:37:21;99055.66;;;5.38;82.26
69855;BME280;57146;48.140;16.304;2023-12-20T11:39:55;99076.25;;;5.45;81.40
69855;BME280;57146;48.140;16.304;2023-12-20T11:42:23;99078.09;;;5.44;82.25
69855;BME280;57146;48.140;16.304;2023-12-20T11:44:50;99072.06;;;5.44;81.87
69855;BME280;57146;48.140;16.304;2023-12-20T11:47:17;99075.72;;;5.48;81.31
69855;BME280;57146;48.140;16.304;2023-12-20T11:49:47;99057.94;;;5.50;81.16
69855;BME280;57146;48.140;16.304;2023-12-20T11:52:14;99067.06;;;5.52;81.39
69855;BME280;57146;48.140;16.304;2023-12-20T11:54:41;99069.63;;;5.58;80.40
69855;BME280;57146;48.140;16.304;2023-12-20T11:57:08;99066.00;;;5.59;81.17
69855;BME280;57146;48.140;16.304;2023-12-20T11:59:36;99075.09;;;5.61;80.95
69855;BME280;57146;48.140;16.304;2023-12-20T12:02:03;99065.19;;;5.63;81.17
69855;BME280;57146;48.140;16.304;2023-12-20T12:04:31;99080.03;;;5.68;80.52
69855;BME280;57146;48.140;16.304;2023-12-20T12:06:58;99077.63;;;5.76;79.94
69855;BME280;57146;48.140;16.304;2023-12-20T12:09:25;99067.66;;;5.79;79.90
69855;BME280;57146;48.140;16.304;2023-12-20T12:11:52;99074.44;;;5.80;80.20
69855;BME280;57146;48.140;16.304;2023-12-20T12:14:20;99082.03;;;5.81;80.75
69855;BME280;57146;48.140;16.304;2023-12-20T12:16:47;99068.66;;;5.88;79.61
69855;BME280;57146;48.140;16.304;2023-12-20T12:19:24;99069.66;;;5.92;79.67
69855;BME280;57146;48.140;16.304;2023-12-20T12:22:09;99069.94;;;5.95;79.40
69855;BME280;57146;48.140;16.304;2023-12-20T12:24:46;99067.03;;;5.97;79.25
69855;BME280;57146;48.140;16.304;2023-12-20T12:27:14;99052.72;;;5.94;80.16
69855;BME280;57146;48.140;16.304;2023-12-20T12:29:43;99041.19;;;5.95;79.40
69855;BME280;57146;48.140;16.304;2023-12-20T12:32:26;99045.13;;;5.93;80.69
69855;BME280;57146;48.140;16.304;2023-12-20T12:34:54;99054.78;;;5.92;80.14
69855;BME280;57146;48.140;16.304;2023-12-20T12:37:22;99057.34;;;5.97;79.09
69855;BME280;57146;48.140;16.304;2023-12-20T12:39:49;99061.31;;;5.95;79.69
69855;BME280;57146;48.140;16.304;2023-12-20T12:42:16;99050.34;;;5.93;80.29
69855;BME280;57146;48.140;16.304;2023-12-20T12:44:43;99070.22;;;5.89;80.68
69855;BME280;57146;48.140;16.304;2023-12-20T12:47:10;99066.31;;;5.86;80.48
69855;BME280;57146;48.140;16.304;2023-12-20T12:49:38;99072.31;;;5.87;79.25
69855;BME280;57146;48.140;16.304;2023-12-20T12:52:08;99061.31;;;5.90;78.97
69855;BME280;57146;48.140;16.304;2023-12-20T12:54:35;99054.00;;;5.87;79.59
69855;BME280;57146;48.140;16.304;2023-12-20T12:57:02;99063.47;;;5.83;80.11
69855;BME280;57146;48.140;16.304;2023-12-20T12:59:29;99061.13;;;5.81;79.50
69855;BME280;57146;48.140;16.304;2023-12-20T13:01:56;99067.66;;;5.79;79.72
69855;BME280;57146;48.140;16.304;2023-12-20T13:04:24;99062.97;;;5.81;79.26
69855;BME280;57146;48.140;16.304;2023-12-20T13:06:51;99058.00;;;5.79;79.66
69855;BME280;57146;48.140;16.304;2023-12-20T13:09:18;99061.97;;;5.76;79.63